Cape May, New Jersey
Current Conditions -  °F | °C
As of 7:55 PM on Friday 24 Oct 2014 (Local Time) from KWWD Reporting Station
Clear Clear  
Wind Chill: 63°   Ceiling: Unl
Heat Index: 63°   Visibility: 10mi
Dew Point: 45°   Wind: 8mph
Humidity: 52%   Direction: 280°W
Pressure: 29.87"   Gusts: NA
Location:  38.94°N, 74.91°W
Report Text: KWWD 242355Z AUTO 28007KT 10SM CLR 17/07 A2987 RMK AO1 10190 20160 401900120 52014
Loading
Personal Weather Stations






























Interactive Weather Map New forecast layout! Learn more

10-Day Weather Forecast

Advertisements
Track Severe Weather on mobile